KSVHKGYR

Guest
Details From KSVH - Statesville Rgnl
To KGYR - Phoenix Goodyear
Flight Number -
Tags Generated
Created
Modified
Stats Distance 1,553 nm / 2,877 km
Max Altitude 0 ft / 0 m
Waypoints 9
Social Downloads 1
Likes 0
Share VATSIM

Download

Looking for another format? Having issues loading an existing format? Contact us
Advertisement - Login to hide

Notes

Generated

Route

KSVH SKN LOSIY CEDIK UYUPE PELCI DRYHT ILIKE KGYR

ID Type Via Altitude Latitude Longitude Leg Dist Tot Dist Heading (true) Name
O KSVH APT - 0 ft / 0 m 35.76614˚ -80.96562˚ - 0 nm - -
SKN NDB - 0 ft / 0 m 35.98400˚ -85.80811˚ 235 nm 235 nm 275° / 272° HURRICANE NDB
LOSIY FIX - 0 ft / 0 m 36.01461˚ -90.05886˚ 206 nm 442 nm 272° / 269° -
CEDIK FIX - 0 ft / 0 m 35.85564˚ -95.00808˚ 240 nm 683 nm 269° / 266° -
UYUPE FIX - 0 ft / 0 m 35.57171˚ -99.19402˚ 204 nm 888 nm 266° / 264° -
PELCI FIX - 0 ft / 0 m 35.05561˚ -103.93022˚ 234 nm 1122 nm 264° / 261° -
DRYHT FIX - 0 ft / 0 m 34.41756˚ -108.13623˚ 211 nm 1333 nm 261° / 258° -
ILIKE FIX - 0 ft / 0 m 33.44083˚ -112.28575˚ 214 nm 1548 nm 255° / 253° -
O KGYR APT - 0 ft / 0 m 33.41472˚ -112.38334˚ 5 nm 1553 nm 252° / 252° -

Altitude Profile

Advertisement - Login to hide

Weather


0- 5 10 15 20 25 30 35+ Temperature / ° C

Clouds and Precipitation
Forecast for 2017-12-11 06:00 UTC. Updated an hour ago

Ground ~20,000 ft ~40,000 ft Winds

KSVH

Details ICAO KSVH (SVH)
Name Statesville Rgnl
Region United States
Timezone America/New_York (UTC-5.0)
Stats Elevation 965 ft / 294 m (AMSL)
Location 35.764996° -80.953896°
Runways 1
Magnetic Variation 7.775° W

METAR

KSVH 110425Z AUTO 29003KT 10SM CLR M01/M05 A3011 RMK AO2 T10111052

Decode

TAF

Not found

Departure Runways

ID Width Length Bearing (true) Bearing (mag) Surface Threshold Offset Overrun Length
10 98 ft / 30 m 6,993 ft / 2,131 m 96.86° 104.63° Asphalt 1,001 ft / 305 m 0 ft / 0 m
28 98 ft / 30 m 6,993 ft / 2,131 m 276.88° 284.65° Asphalt 551 ft / 168 m 0 ft / 0 m

KGYR

Details ICAO KGYR
Name Phoenix Goodyear
Region United States
Timezone America/Phoenix (UTC-7.0)
Stats Elevation 968 ft / 295 m (AMSL)
Location 33.423725° -112.374458°
Runways 1
Magnetic Variation 10.425° E

METAR

KGYR 110347Z 00000KT 10SM BKN180 OVC250 14/M10 A3019 RMK LAST

Decode

TAF

Not found

Destination Runways

ID Width Length Bearing (true) Bearing (mag) Surface Threshold Offset Overrun Length
03 151 ft / 46 m 8,509 ft / 2,594 m 39.46° 29.04° Asphalt 0 ft / 0 m 200 ft / 61 m
21 151 ft / 46 m 8,509 ft / 2,594 m 219.46° 209.04° Asphalt 2,100 ft / 640 m 0 ft / 0 m